sensor_id;sensor_type;location;lat;lon;timestamp;temperature;humidity
20349;DHT22;10332;50.208;18.988;2022-09-06T00:01:13;14.10;77.50
20349;DHT22;10332;50.208;18.988;2022-09-06T00:03:43;14.00;76.90
20349;DHT22;10332;50.208;18.988;2022-09-06T00:06:13;13.90;77.10
20349;DHT22;10332;50.208;18.988;2022-09-06T00:08:44;13.80;77.00
20349;DHT22;10332;50.208;18.988;2022-09-06T00:11:13;13.70;77.30
20349;DHT22;10332;50.208;18.988;2022-09-06T00:13:41;13.70;77.80
20349;DHT22;10332;50.208;18.988;2022-09-06T00:16:11;13.60;78.00
20349;DHT22;10332;50.208;18.988;2022-09-06T00:18:42;13.50;78.40
20349;DHT22;10332;50.208;18.988;2022-09-06T00:21:18;13.50;78.20
20349;DHT22;10332;50.208;18.988;2022-09-06T00:23:49;13.50;78.30
20349;DHT22;10332;50.208;18.988;2022-09-06T00:26:17;13.40;78.90
20349;DHT22;10332;50.208;18.988;2022-09-06T00:28:45;13.40;79.30
20349;DHT22;10332;50.208;18.988;2022-09-06T00:31:22;13.30;79.50
20349;DHT22;10332;50.208;18.988;2022-09-06T00:33:51;13.30;79.80
20349;DHT22;10332;50.208;18.988;2022-09-06T00:36:20;13.30;79.50
20349;DHT22;10332;50.208;18.988;2022-09-06T00:38:47;13.30;79.70
20349;DHT22;10332;50.208;18.988;2022-09-06T00:41:15;13.20;80.00
20349;DHT22;10332;50.208;18.988;2022-09-06T00:43:44;13.20;79.90
20349;DHT22;10332;50.208;18.988;2022-09-06T00:46:14;13.20;79.80
20349;DHT22;10332;50.208;18.988;2022-09-06T00:48:48;13.20;80.50
20349;DHT22;10332;50.208;18.988;2022-09-06T00:51:19;13.10;81.00
20349;DHT22;10332;50.208;18.988;2022-09-06T00:53:49;13.10;80.90
20349;DHT22;10332;50.208;18.988;2022-09-06T00:56:17;13.10;80.60
20349;DHT22;10332;50.208;18.988;2022-09-06T00:58:45;13.10;80.30
20349;DHT22;10332;50.208;18.988;2022-09-06T01:01:14;13.10;80.20
20349;DHT22;10332;50.208;18.988;2022-09-06T01:03:42;13.10;80.50
20349;DHT22;10332;50.208;18.988;2022-09-06T01:06:24;13.10;80.30
20349;DHT22;10332;50.208;18.988;2022-09-06T01:30:16;12.90;80.80
20349;DHT22;10332;50.208;18.988;2022-09-06T01:35:49;12.80;81.10
20349;DHT22;10332;50.208;18.988;2022-09-06T01:38:23;12.80;81.40
20349;DHT22;10332;50.208;18.988;2022-09-06T01:40:51;12.70;80.90
20349;DHT22;10332;50.208;18.988;2022-09-06T01:43:29;12.80;81.40
20349;DHT22;10332;50.208;18.988;2022-09-06T01:54:56;12.70;81.30
20349;DHT22;10332;50.208;18.988;2022-09-06T02:00:22;12.60;82.50
20349;DHT22;10332;50.208;18.988;2022-09-06T02:06:12;12.60;83.10
20349;DHT22;10332;50.208;18.988;2022-09-06T02:08:47;12.60;83.30
20349;DHT22;10332;50.208;18.988;2022-09-06T02:11:21;12.60;83.90
20349;DHT22;10332;50.208;18.988;2022-09-06T02:13:55;12.50;83.80
20349;DHT22;10332;50.208;18.988;2022-09-06T02:16:32;12.50;84.60
20349;DHT22;10332;50.208;18.988;2022-09-06T02:19:23;12.40;84.10
20349;DHT22;10332;50.208;18.988;2022-09-06T02:22:03;12.40;84.40
20349;DHT22;10332;50.208;18.988;2022-09-06T02:24:36;12.40;84.50
20349;DHT22;10332;50.208;18.988;2022-09-06T02:27:07;12.30;84.50
20349;DHT22;10332;50.208;18.988;2022-09-06T02:29:35;12.30;84.30
20349;DHT22;10332;50.208;18.988;2022-09-06T02:32:22;12.40;84.60
20349;DHT22;10332;50.208;18.988;2022-09-06T02:34:53;12.40;84.90
20349;DHT22;10332;50.208;18.988;2022-09-06T02:37:23;12.40;85.10
20349;DHT22;10332;50.208;18.988;2022-09-06T02:39:54;12.30;85.10
20349;DHT22;10332;50.208;18.988;2022-09-06T02:42:23;12.30;85.60
20349;DHT22;10332;50.208;18.988;2022-09-06T02:44:51;12.20;85.70
20349;DHT22;10332;50.208;18.988;2022-09-06T02:47:18;12.20;85.60
20349;DHT22;10332;50.208;18.988;2022-09-06T02:49:45;12.30;85.70
20349;DHT22;10332;50.208;18.988;2022-09-06T02:52:13;12.20;85.80
20349;DHT22;10332;50.208;18.988;2022-09-06T02:54:41;12.30;85.90
20349;DHT22;10332;50.208;18.988;2022-09-06T02:57:08;12.20;86.50
20349;DHT22;10332;50.208;18.988;2022-09-06T02:59:36;12.20;86.80
20349;DHT22;10332;50.208;18.988;2022-09-06T03:02:03;12.10;86.60
20349;DHT22;10332;50.208;18.988;2022-09-06T03:04:31;12.10;86.70
20349;DHT22;10332;50.208;18.988;2022-09-06T03:06:58;12.10;86.90
20349;DHT22;10332;50.208;18.988;2022-09-06T03:09:26;12.00;87.10
20349;DHT22;10332;50.208;18.988;2022-09-06T03:11:54;12.00;87.20
20349;DHT22;10332;50.208;18.988;2022-09-06T03:14:21;12.00;87.10
20349;DHT22;10332;50.208;18.988;2022-09-06T03:16:49;12.00;87.30
20349;DHT22;10332;50.208;18.988;2022-09-06T03:19:16;12.00;87.80
20349;DHT22;10332;50.208;18.988;2022-09-06T03:21:45;11.90;88.10
20349;DHT22;10332;50.208;18.988;2022-09-06T03:24:13;11.90;88.40
20349;DHT22;10332;50.208;18.988;2022-09-06T03:26:40;11.90;88.40
20349;DHT22;10332;50.208;18.988;2022-09-06T03:29:08;11.90;89.20
20349;DHT22;10332;50.208;18.988;2022-09-06T03:31:36;11.90;88.90
20349;DHT22;10332;50.208;18.988;2022-09-06T03:34:03;11.90;88.50
20349;DHT22;10332;50.208;18.988;2022-09-06T03:36:36;11.80;88.10
20349;DHT22;10332;50.208;18.988;2022-09-06T03:39:04;11.80;87.90
20349;DHT22;10332;50.208;18.988;2022-09-06T03:41:32;11.80;87.80
20349;DHT22;10332;50.208;18.988;2022-09-06T03:43:59;11.80;87.30
20349;DHT22;10332;50.208;18.988;2022-09-06T03:46:27;11.80;87.00
20349;DHT22;10332;50.208;18.988;2022-09-06T03:48:57;11.90;88.00
20349;DHT22;10332;50.208;18.988;2022-09-06T03:51:25;11.80;87.90
20349;DHT22;10332;50.208;18.988;2022-09-06T03:53:52;11.80;88.20
20349;DHT22;10332;50.208;18.988;2022-09-06T03:56:20;11.80;88.10
20349;DHT22;10332;50.208;18.988;2022-09-06T03:58:48;11.70;88.40
20349;DHT22;10332;50.208;18.988;2022-09-06T04:01:15;11.70;88.90
20349;DHT22;10332;50.208;18.988;2022-09-06T04:03:43;11.70;89.60
20349;DHT22;10332;50.208;18.988;2022-09-06T04:06:10;11.70;90.00
20349;DHT22;10332;50.208;18.988;2022-09-06T04:08:38;11.70;90.00
20349;DHT22;10332;50.208;18.988;2022-09-06T04:11:05;11.60;90.00
20349;DHT22;10332;50.208;18.988;2022-09-06T04:13:34;11.70;90.30
20349;DHT22;10332;50.208;18.988;2022-09-06T04:16:03;11.70;90.70
20349;DHT22;10332;50.208;18.988;2022-09-06T04:18:31;11.60;90.60
20349;DHT22;10332;50.208;18.988;2022-09-06T04:20:58;11.60;90.50
20349;DHT22;10332;50.208;18.988;2022-09-06T04:23:27;11.60;90.50
20349;DHT22;10332;50.208;18.988;2022-09-06T04:25:58;11.60;90.60
20349;DHT22;10332;50.208;18.988;2022-09-06T04:28:26;11.60;90.90
20349;DHT22;10332;50.208;18.988;2022-09-06T04:30:58;11.70;91.10
20349;DHT22;10332;50.208;18.988;2022-09-06T04:33:32;11.70;91.00
20349;DHT22;10332;50.208;18.988;2022-09-06T04:36:02;11.70;90.80
20349;DHT22;10332;50.208;18.988;2022-09-06T04:38:37;11.70;90.70
20349;DHT22;10332;50.208;18.988;2022-09-06T04:41:07;11.80;90.50
20349;DHT22;10332;50.208;18.988;2022-09-06T04:43:36;11.80;90.60
20349;DHT22;10332;50.208;18.988;2022-09-06T04:49:00;11.80;90.50
20349;DHT22;10332;50.208;18.988;2022-09-06T04:51:27;11.90;90.30
20349;DHT22;10332;50.208;18.988;2022-09-06T04:53:55;11.80;90.40
20349;DHT22;10332;50.208;18.988;2022-09-06T04:56:24;11.90;90.30
20349;DHT22;10332;50.208;18.988;2022-09-06T04:58:53;11.90;90.30
20349;DHT22;10332;50.208;18.988;2022-09-06T05:01:21;11.90;90.00
20349;DHT22;10332;50.208;18.988;2022-09-06T05:03:49;11.90;89.90
20349;DHT22;10332;50.208;18.988;2022-09-06T05:06:23;12.00;90.10
20349;DHT22;10332;50.208;18.988;2022-09-06T05:08:51;12.00;90.00
20349;DHT22;10332;50.208;18.988;2022-09-06T05:11:19;12.00;90.20
20349;DHT22;10332;50.208;18.988;2022-09-06T05:13:47;12.10;90.30
20349;DHT22;10332;50.208;18.988;2022-09-06T05:16:16;12.10;90.20
20349;DHT22;10332;50.208;18.988;2022-09-06T05:18:44;12.20;90.10
20349;DHT22;10332;50.208;18.988;2022-09-06T05:21:11;12.20;90.00
20349;DHT22;10332;50.208;18.988;2022-09-06T05:23:39;12.30;89.80
20349;DHT22;10332;50.208;18.988;2022-09-06T05:26:06;12.30;89.70
20349;DHT22;10332;50.208;18.988;2022-09-06T05:28:34;12.40;89.40
20349;DHT22;10332;50.208;18.988;2022-09-06T05:31:09;12.50;89.20
20349;DHT22;10332;50.208;18.988;2022-09-06T05:33:38;12.60;88.20
20349;DHT22;10332;50.208;18.988;2022-09-06T05:36:06;12.60;87.70
20349;DHT22;10332;50.208;18.988;2022-09-06T05:38:34;12.70;86.90
20349;DHT22;10332;50.208;18.988;2022-09-06T05:41:01;12.80;87.10
20349;DHT22;10332;50.208;18.988;2022-09-06T05:43:29;12.80;86.70
20349;DHT22;10332;50.208;18.988;2022-09-06T05:45:56;13.00;86.30
20349;DHT22;10332;50.208;18.988;2022-09-06T05:48:24;13.00;86.00
20349;DHT22;10332;50.208;18.988;2022-09-06T05:51:03;13.10;85.50
20349;DHT22;10332;50.208;18.988;2022-09-06T05:53:40;13.30;85.30
20349;DHT22;10332;50.208;18.988;2022-09-06T05:56:12;13.40;85.50
20349;DHT22;10332;50.208;18.988;2022-09-06T05:58:40;13.50;85.00
20349;DHT22;10332;50.208;18.988;2022-09-06T06:01:24;13.70;84.70
20349;DHT22;10332;50.208;18.988;2022-09-06T06:04:01;13.90;83.10
20349;DHT22;10332;50.208;18.988;2022-09-06T06:06:32;14.20;81.40
20349;DHT22;10332;50.208;18.988;2022-09-06T06:09:00;14.50;79.60
20349;DHT22;10332;50.208;18.988;2022-09-06T06:11:29;14.80;78.00
20349;DHT22;10332;50.208;18.988;2022-09-06T06:13:57;15.00;76.90
20349;DHT22;10332;50.208;18.988;2022-09-06T06:16:27;15.20;75.80
20349;DHT22;10332;50.208;18.988;2022-09-06T06:18:55;15.40;73.50
20349;DHT22;10332;50.208;18.988;2022-09-06T06:21:23;15.60;73.10
20349;DHT22;10332;50.208;18.988;2022-09-06T06:24:00;15.80;73.20
20349;DHT22;10332;50.208;18.988;2022-09-06T06:26:34;16.00;72.80
20349;DHT22;10332;50.208;18.988;2022-09-06T06:29:04;16.20;72.00
20349;DHT22;10332;50.208;18.988;2022-09-06T06:31:35;16.40;69.80
20349;DHT22;10332;50.208;18.988;2022-09-06T06:34:05;16.60;69.30
20349;DHT22;10332;50.208;18.988;2022-09-06T06:36:34;16.70;68.90
20349;DHT22;10332;50.208;18.988;2022-09-06T06:39:05;16.80;68.10
20349;DHT22;10332;50.208;18.988;2022-09-06T06:41:34;17.00;66.90
20349;DHT22;10332;50.208;18.988;2022-09-06T06:44:04;18.00;65.00
20349;DHT22;10332;50.208;18.988;2022-09-06T06:46:36;18.10;63.20
20349;DHT22;10332;50.208;18.988;2022-09-06T06:49:05;17.80;61.90
20349;DHT22;10332;50.208;18.988;2022-09-06T06:51:33;17.70;62.30
20349;DHT22;10332;50.208;18.988;2022-09-06T06:54:04;17.60;62.60
20349;DHT22;10332;50.208;18.988;2022-09-06T06:56:35;17.70;62.20
20349;DHT22;10332;50.208;18.988;2022-09-06T06:59:06;17.70;61.80
20349;DHT22;10332;50.208;18.988;2022-09-06T07:01:35;17.70;61.50
20349;DHT22;10332;50.208;18.988;2022-09-06T07:04:05;18.00;60.50
20349;DHT22;10332;50.208;18.988;2022-09-06T07:06:54;18.40;59.70
20349;DHT22;10332;50.208;18.988;2022-09-06T07:09:44;18.70;58.60
20349;DHT22;10332;50.208;18.988;2022-09-06T07:12:31;19.00;57.30
20349;DHT22;10332;50.208;18.988;2022-09-06T07:14:59;19.20;56.80
20349;DHT22;10332;50.208;18.988;2022-09-06T07:17:29;19.40;56.30
20349;DHT22;10332;50.208;18.988;2022-09-06T07:19:57;19.40;55.00
20349;DHT22;10332;50.208;18.988;2022-09-06T07:22:42;19.40;54.90
20349;DHT22;10332;50.208;18.988;2022-09-06T07:25:10;19.80;54.00
20349;DHT22;10332;50.208;18.988;2022-09-06T07:27:46;20.20;51.70
20349;DHT22;10332;50.208;18.988;2022-09-06T07:30:16;20.90;50.00
20349;DHT22;10332;50.208;18.988;2022-09-06T07:32:45;25.20;38.30
20349;DHT22;10332;50.208;18.988;2022-09-06T07:35:13;28.00;11.80
20349;DHT22;10332;50.208;18.988;2022-09-06T07:37:41;29.50;1.00
20349;DHT22;10332;50.208;18.988;2022-09-06T07:40:09;28.30;1.00
20349;DHT22;10332;50.208;18.988;2022-09-06T07:42:37;27.00;1.00
20349;DHT22;10332;50.208;18.988;2022-09-06T07:45:04;25.60;1.00
20349;DHT22;10332;50.208;18.988;2022-09-06T07:47:32;24.60;1.00
20349;DHT22;10332;50.208;18.988;2022-09-06T07:50:20;23.60;1.00
20349;DHT22;10332;50.208;18.988;2022-09-06T07:53:09;22.60;2.20
20349;DHT22;10332;50.208;18.988;2022-09-06T07:55:55;21.80;6.20
20349;DHT22;10332;50.208;18.988;2022-09-06T07:58:22;21.20;10.20
20349;DHT22;10332;50.208;18.988;2022-09-06T08:00:50;20.80;13.20
20349;DHT22;10332;50.208;18.988;2022-09-06T08:03:17;20.50;16.30
20349;DHT22;10332;50.208;18.988;2022-09-06T08:05:48;20.20;19.30
20349;DHT22;10332;50.208;18.988;2022-09-06T08:08:37;20.00;22.60
20349;DHT22;10332;50.208;18.988;2022-09-06T08:11:30;19.80;25.40
20349;DHT22;10332;50.208;18.988;2022-09-06T08:14:00;19.70;28.50
20349;DHT22;10332;50.208;18.988;2022-09-06T08:16:30;19.50;30.50
20349;DHT22;10332;50.208;18.988;2022-09-06T08:19:01;19.40;34.30
20349;DHT22;10332;50.208;18.988;2022-09-06T08:21:31;19.40;36.40
20349;DHT22;10332;50.208;18.988;2022-09-06T08:24:02;19.40;38.50
20349;DHT22;10332;50.208;18.988;2022-09-06T08:26:33;19.40;41.10
20349;DHT22;10332;50.208;18.988;2022-09-06T08:29:04;19.40;42.60
20349;DHT22;10332;50.208;18.988;2022-09-06T08:31:35;19.60;43.70
20349;DHT22;10332;50.208;18.988;2022-09-06T08:34:05;19.80;44.20
20349;DHT22;10332;50.208;18.988;2022-09-06T08:36:33;20.10;43.90
20349;DHT22;10332;50.208;18.988;2022-09-06T08:39:04;20.40;43.70
20349;DHT22;10332;50.208;18.988;2022-09-06T08:41:46;20.60;43.40
20349;DHT22;10332;50.208;18.988;2022-09-06T08:44:22;20.90;43.20
20349;DHT22;10332;50.208;18.988;2022-09-06T08:47:15;21.60;42.00
20349;DHT22;10332;50.208;18.988;2022-09-06T08:49:50;22.40;38.80
20349;DHT22;10332;50.208;18.988;2022-09-06T08:55:47;24.20;28.20
20349;DHT22;10332;50.208;18.988;2022-09-06T08:59:06;23.80;24.90
20349;DHT22;10332;50.208;18.988;2022-09-06T09:04:44;22.80;24.80
20349;DHT22;10332;50.208;18.988;2022-09-06T09:07:32;22.50;24.40
20349;DHT22;10332;50.208;18.988;2022-09-06T09:10:18;22.30;24.20
20349;DHT22;10332;50.208;18.988;2022-09-06T09:12:53;22.10;25.40
20349;DHT22;10332;50.208;18.988;2022-09-06T09:15:21;22.00;25.00
20349;DHT22;10332;50.208;18.988;2022-09-06T09:17:50;21.90;24.50
20349;DHT22;10332;50.208;18.988;2022-09-06T09:20:20;21.80;23.90
20349;DHT22;10332;50.208;18.988;2022-09-06T09:22:48;21.60;23.90
20349;DHT22;10332;50.208;18.988;2022-09-06T09:25:22;21.30;23.90
20349;DHT22;10332;50.208;18.988;2022-09-06T09:27:54;21.20;25.50
20349;DHT22;10332;50.208;18.988;2022-09-06T09:30:42;21.20;25.10
20349;DHT22;10332;50.208;18.988;2022-09-06T09:33:23;21.30;25.10
20349;DHT22;10332;50.208;18.988;2022-09-06T09:35:58;21.90;24.10
20349;DHT22;10332;50.208;18.988;2022-09-06T09:38:43;22.90;21.30
20349;DHT22;10332;50.208;18.988;2022-09-06T09:41:44;24.50;15.00
20349;DHT22;10332;50.208;18.988;2022-09-06T09:44:18;25.10;10.20
20349;DHT22;10332;50.208;18.988;2022-09-06T09:46:46;25.30;9.10
20349;DHT22;10332;50.208;18.988;2022-09-06T09:49:27;27.30;4.60
20349;DHT22;10332;50.208;18.988;2022-09-06T09:52:13;28.50;1.00
20349;DHT22;10332;50.208;18.988;2022-09-06T09:54:43;29.00;1.00
20349;DHT22;10332;50.208;18.988;2022-09-06T09:57:16;28.90;1.00
20349;DHT22;10332;50.208;18.988;2022-09-06T09:59:53;28.70;1.00
20349;DHT22;10332;50.208;18.988;2022-09-06T10:07:55;28.00;1.00
20349;DHT22;10332;50.208;18.988;2022-09-06T10:10:26;28.10;1.00
20349;DHT22;10332;50.208;18.988;2022-09-06T10:13:17;28.10;1.00
20349;DHT22;10332;50.208;18.988;2022-09-06T10:15:59;28.60;1.00
20349;DHT22;10332;50.208;18.988;2022-09-06T10:18:40;29.00;1.00
20349;DHT22;10332;50.208;18.988;2022-09-06T10:21:16;28.90;1.00
20349;DHT22;10332;50.208;18.988;2022-09-06T10:27:00;28.40;1.00
20349;DHT22;10332;50.208;18.988;2022-09-06T10:35:16;28.30;1.00
20349;DHT22;10332;50.208;18.988;2022-09-06T10:38:09;28.30;1.00
20349;DHT22;10332;50.208;18.988;2022-09-06T10:43:48;28.50;1.00
20349;DHT22;10332;50.208;18.988;2022-09-06T10:46:42;30.00;1.00
20349;DHT22;10332;50.208;18.988;2022-09-06T10:49:17;31.70;1.00
20349;DHT22;10332;50.208;18.988;2022-09-06T10:51:50;35.20;1.00
20349;DHT22;10332;50.208;18.988;2022-09-06T10:54:23;39.00;1.00
20349;DHT22;10332;50.208;18.988;2022-09-06T10:57:21;42.90;1.00
20349;DHT22;10332;50.208;18.988;2022-09-06T11:00:15;46.30;1.00
20349;DHT22;10332;50.208;18.988;2022-09-06T11:05:58;49.10;1.00
20349;DHT22;10332;50.208;18.988;2022-09-06T11:08:41;48.30;1.00
20349;DHT22;10332;50.208;18.988;2022-09-06T11:11:41;47.60;1.00
20349;DHT22;10332;50.208;18.988;2022-09-06T11:14:14;48.00;1.00
20349;DHT22;10332;50.208;18.988;2022-09-06T11:16:48;48.60;1.00
20349;DHT22;10332;50.208;18.988;2022-09-06T11:19:56;49.80;1.00
20349;DHT22;10332;50.208;18.988;2022-09-06T11:31:11;51.90;1.00
20349;DHT22;10332;50.208;18.988;2022-09-06T11:34:27;52.60;1.00
20349;DHT22;10332;50.208;18.988;2022-09-06T11:37:02;53.30;1.00
20349;DHT22;10332;50.208;18.988;2022-09-06T11:39:37;53.00;1.00
20349;DHT22;10332;50.208;18.988;2022-09-06T11:45:40;51.50;1.00
20349;DHT22;10332;50.208;18.988;2022-09-06T11:53:22;46.30;1.00
20349;DHT22;10332;50.208;18.988;2022-09-06T12:11:59;53.10;1.00
20349;DHT22;10332;50.208;18.988;2022-09-06T12:14:32;51.90;1.00
20349;DHT22;10332;50.208;18.988;2022-09-06T12:19:50;49.20;1.00
20349;DHT22;10332;50.208;18.988;2022-09-06T12:25:01;46.10;1.00
20349;DHT22;10332;50.208;18.988;2022-09-06T12:27:31;45.10;1.00
20349;DHT22;10332;50.208;18.988;2022-09-06T12:30:11;45.30;1.00
20349;DHT22;10332;50.208;18.988;2022-09-06T12:32:45;46.20;1.00
20349;DHT22;10332;50.208;18.988;2022-09-06T12:35:27;47.40;1.00
20349;DHT22;10332;50.208;18.988;2022-09-06T12:38:23;48.20;1.00
20349;DHT22;10332;50.208;18.988;2022-09-06T12:40:52;48.20;1.00
20349;DHT22;10332;50.208;18.988;2022-09-06T12:43:25;47.50;1.00
20349;DHT22;10332;50.208;18.988;2022-09-06T12:45:53;46.50;1.00
20349;DHT22;10332;50.208;18.988;2022-09-06T12:48:35;44.90;1.00
20349;DHT22;10332;50.208;18.988;2022-09-06T12:51:10;43.90;1.00
20349;DHT22;10332;50.208;18.988;2022-09-06T12:53:53;42.60;1.00
20349;DHT22;10332;50.208;18.988;2022-09-06T12:56:26;41.40;1.00
20349;DHT22;10332;50.208;18.988;2022-09-06T12:59:16;40.30;1.00
20349;DHT22;10332;50.208;18.988;2022-09-06T13:02:04;38.80;1.00
20349;DHT22;10332;50.208;18.988;2022-09-06T13:04:44;37.00;1.00
20349;DHT22;10332;50.208;18.988;2022-09-06T13:07:17;35.60;1.00
20349;DHT22;10332;50.208;18.988;2022-09-06T13:09:52;34.60;1.00
20349;DHT22;10332;50.208;18.988;2022-09-06T13:12:40;33.60;1.00
20349;DHT22;10332;50.208;18.988;2022-09-06T13:15:16;32.90;1.00
20349;DHT22;10332;50.208;18.988;2022-09-06T13:17:46;32.00;1.00
20349;DHT22;10332;50.208;18.988;2022-09-06T13:20:24;31.30;1.00
20349;DHT22;10332;50.208;18.988;2022-09-06T13:23:10;30.70;1.00
20349;DHT22;10332;50.208;18.988;2022-09-06T13:25:50;30.70;1.00
20349;DHT22;10332;50.208;18.988;2022-09-06T13:28:31;31.50;1.00
20349;DHT22;10332;50.208;18.988;2022-09-06T13:33:54;34.50;1.00
20349;DHT22;10332;50.208;18.988;2022-09-06T13:36:26;34.60;1.00
20349;DHT22;10332;50.208;18.988;2022-09-06T13:38:58;33.90;1.00
20349;DHT22;10332;50.208;18.988;2022-09-06T13:44:01;32.50;1.00
20349;DHT22;10332;50.208;18.988;2022-09-06T13:46:34;32.30;1.00
20349;DHT22;10332;50.208;18.988;2022-09-06T13:49:05;32.70;1.00
20349;DHT22;10332;50.208;18.988;2022-09-06T13:51:33;32.70;1.00
20349;DHT22;10332;50.208;18.988;2022-09-06T13:54:09;32.80;1.00
20349;DHT22;10332;50.208;18.988;2022-09-06T13:56:41;33.10;1.00
20349;DHT22;10332;50.208;18.988;2022-09-06T13:59:11;33.20;1.00
20349;DHT22;10332;50.208;18.988;2022-09-06T14:01:40;32.90;1.00
20349;DHT22;10332;50.208;18.988;2022-09-06T14:04:13;32.50;1.00
20349;DHT22;10332;50.208;18.988;2022-09-06T14:06:46;31.90;1.00
20349;DHT22;10332;50.208;18.988;2022-09-06T14:09:14;31.30;1.00
20349;DHT22;10332;50.208;18.988;2022-09-06T14:11:42;30.90;1.00
20349;DHT22;10332;50.208;18.988;2022-09-06T14:14:15;30.60;1.00
20349;DHT22;10332;50.208;18.988;2022-09-06T14:16:44;30.40;1.00
20349;DHT22;10332;50.208;18.988;2022-09-06T14:19:14;30.30;1.00
20349;DHT22;10332;50.208;18.988;2022-09-06T14:21:41;30.00;1.00
20349;DHT22;10332;50.208;18.988;2022-09-06T14:24:09;29.90;1.00
20349;DHT22;10332;50.208;18.988;2022-09-06T14:26:37;30.00;1.00
20349;DHT22;10332;50.208;18.988;2022-09-06T14:29:04;31.50;1.00
20349;DHT22;10332;50.208;18.988;2022-09-06T14:31:32;33.40;1.00
20349;DHT22;10332;50.208;18.988;2022-09-06T14:34:01;34.60;1.00
20349;DHT22;10332;50.208;18.988;2022-09-06T14:36:31;34.80;1.00
20349;DHT22;10332;50.208;18.988;2022-09-06T14:39:00;34.30;1.00
20349;DHT22;10332;50.208;18.988;2022-09-06T14:41:28;33.50;1.00
20349;DHT22;10332;50.208;18.988;2022-09-06T14:43:57;32.70;1.00
20349;DHT22;10332;50.208;18.988;2022-09-06T14:46:26;31.80;1.00
20349;DHT22;10332;50.208;18.988;2022-09-06T14:48:57;30.90;1.00
20349;DHT22;10332;50.208;18.988;2022-09-06T14:51:27;30.30;1.00
20349;DHT22;10332;50.208;18.988;2022-09-06T14:54:00;29.90;1.00
20349;DHT22;10332;50.208;18.988;2022-09-06T14:56:29;29.60;1.00
20349;DHT22;10332;50.208;18.988;2022-09-06T14:58:57;29.20;1.00
20349;DHT22;10332;50.208;18.988;2022-09-06T15:01:28;28.80;1.00
20349;DHT22;10332;50.208;18.988;2022-09-06T15:04:05;28.40;1.00
20349;DHT22;10332;50.208;18.988;2022-09-06T15:06:36;27.90;1.00
20349;DHT22;10332;50.208;18.988;2022-09-06T15:09:06;27.40;1.00
20349;DHT22;10332;50.208;18.988;2022-09-06T15:11:41;27.00;1.00
20349;DHT22;10332;50.208;18.988;2022-09-06T15:14:16;26.70;1.00
20349;DHT22;10332;50.208;18.988;2022-09-06T15:16:51;26.40;1.00
20349;DHT22;10332;50.208;18.988;2022-09-06T15:19:23;26.20;1.00
20349;DHT22;10332;50.208;18.988;2022-09-06T15:21:53;25.90;1.00
20349;DHT22;10332;50.208;18.988;2022-09-06T15:24:23;25.60;1.00
20349;DHT22;10332;50.208;18.988;2022-09-06T15:26:51;25.40;1.00
20349;DHT22;10332;50.208;18.988;2022-09-06T15:29:19;25.20;1.00
20349;DHT22;10332;50.208;18.988;2022-09-06T15:31:48;24.90;1.00
20349;DHT22;10332;50.208;18.988;2022-09-06T15:34:21;24.80;1.00
20349;DHT22;10332;50.208;18.988;2022-09-06T15:36:51;24.80;1.00
20349;DHT22;10332;50.208;18.988;2022-09-06T15:39:19;24.80;1.00
20349;DHT22;10332;50.208;18.988;2022-09-06T15:41:48;24.80;1.00
20349;DHT22;10332;50.208;18.988;2022-09-06T15:44:18;24.80;1.00
20349;DHT22;10332;50.208;18.988;2022-09-06T15:46:55;24.70;1.00
20349;DHT22;10332;50.208;18.988;2022-09-06T15:49:31;24.60;1.00
20349;DHT22;10332;50.208;18.988;2022-09-06T15:52:00;24.40;1.00
20349;DHT22;10332;50.208;18.988;2022-09-06T15:54:29;24.20;1.00
20349;DHT22;10332;50.208;18.988;2022-09-06T15:57:16;24.00;1.00
20349;DHT22;10332;50.208;18.988;2022-09-06T15:59:44;23.70;1.00
20349;DHT22;10332;50.208;18.988;2022-09-06T16:02:13;23.60;1.00
20349;DHT22;10332;50.208;18.988;2022-09-06T16:04:41;23.50;1.00
20349;DHT22;10332;50.208;18.988;2022-09-06T16:07:08;23.30;1.00
20349;DHT22;10332;50.208;18.988;2022-09-06T16:09:36;23.20;1.00
20349;DHT22;10332;50.208;18.988;2022-09-06T16:12:04;23.10;1.00
20349;DHT22;10332;50.208;18.988;2022-09-06T16:14:32;23.10;1.00
20349;DHT22;10332;50.208;18.988;2022-09-06T16:17:00;23.10;1.00
20349;DHT22;10332;50.208;18.988;2022-09-06T16:19:28;23.10;1.00
20349;DHT22;10332;50.208;18.988;2022-09-06T16:21:56;23.00;1.00
20349;DHT22;10332;50.208;18.988;2022-09-06T16:24:24;22.80;1.00
20349;DHT22;10332;50.208;18.988;2022-09-06T16:26:52;22.60;1.00
20349;DHT22;10332;50.208;18.988;2022-09-06T16:29:20;22.50;1.00
20349;DHT22;10332;50.208;18.988;2022-09-06T16:31:47;22.30;1.00
20349;DHT22;10332;50.208;18.988;2022-09-06T16:34:15;22.10;1.00
20349;DHT22;10332;50.208;18.988;2022-09-06T16:36:43;21.90;1.00
20349;DHT22;10332;50.208;18.988;2022-09-06T16:39:10;21.80;1.00
20349;DHT22;10332;50.208;18.988;2022-09-06T16:41:44;21.60;1.00
20349;DHT22;10332;50.208;18.988;2022-09-06T16:44:15;21.50;1.00
20349;DHT22;10332;50.208;18.988;2022-09-06T16:46:45;21.30;1.00
20349;DHT22;10332;50.208;18.988;2022-09-06T16:49:15;21.10;1.00
20349;DHT22;10332;50.208;18.988;2022-09-06T16:51:44;21.00;1.00
20349;DHT22;10332;50.208;18.988;2022-09-06T16:54:14;20.80;1.00
20349;DHT22;10332;50.208;18.988;2022-09-06T16:56:43;20.70;1.00
20349;DHT22;10332;50.208;18.988;2022-09-06T16:59:10;20.50;1.00
20349;DHT22;10332;50.208;18.988;2022-09-06T17:01:41;20.40;1.00
20349;DHT22;10332;50.208;18.988;2022-09-06T17:04:09;20.30;1.00
20349;DHT22;10332;50.208;18.988;2022-09-06T17:06:39;20.10;1.00
20349;DHT22;10332;50.208;18.988;2022-09-06T17:09:15;20.00;1.00
20349;DHT22;10332;50.208;18.988;2022-09-06T17:11:46;19.80;1.00
20349;DHT22;10332;50.208;18.988;2022-09-06T17:14:16;19.70;1.00
20349;DHT22;10332;50.208;18.988;2022-09-06T17:16:44;19.60;1.00
20349;DHT22;10332;50.208;18.988;2022-09-06T17:19:36;19.50;1.00
20349;DHT22;10332;50.208;18.988;2022-09-06T17:22:07;19.30;1.00
20349;DHT22;10332;50.208;18.988;2022-09-06T17:24:37;19.20;1.00
20349;DHT22;10332;50.208;18.988;2022-09-06T17:27:07;19.10;1.00
20349;DHT22;10332;50.208;18.988;2022-09-06T17:29:35;19.00;1.00
20349;DHT22;10332;50.208;18.988;2022-09-06T17:32:03;18.90;1.00
20349;DHT22;10332;50.208;18.988;2022-09-06T17:34:39;18.80;1.00
20349;DHT22;10332;50.208;18.988;2022-09-06T17:37:07;18.70;1.00
20349;DHT22;10332;50.208;18.988;2022-09-06T17:39:35;18.70;1.00
20349;DHT22;10332;50.208;18.988;2022-09-06T17:42:02;18.50;1.00
20349;DHT22;10332;50.208;18.988;2022-09-06T17:44:31;18.50;1.00
20349;DHT22;10332;50.208;18.988;2022-09-06T17:46:59;18.40;1.00
20349;DHT22;10332;50.208;18.988;2022-09-06T17:49:39;18.30;1.00